DAAG/ALG METAR and TAF weather

Enter ICAO airport designator
Station Type Date Time Source
DAAG METAR 2022/11/30 16:00 UTC NOAA

DAAG 301600Z 18002KT 9999 FEW023TCU 17/07 Q1016


Station Type Date Time Source
DAAG Decoded METAR 2022/11/30 16:00 UTC NOAA

Dar-El-Beida, Algeria (DAAG) 36-43N 003-15E 25M
Nov 30, 2022 - 11:00 AM EST / 2022.11.30 1600 UTC
Wind: from the S (180 degrees) at 2 MPH (2 KT):0
Visibility: greater than 7 mile(s):0
Sky conditions: mostly clear
Weather: Towering cumulus clouds observed
Temperature: 62 F (17 C)
Dew Point: 44 F (7 C)
Relative Humidity: 51%
Pressure (altimeter): 30.00 in. Hg (1016 hPa)
ob: DAAG 301600Z 18002KT 9999 FEW023TCU 17/07 Q1016
cycle: 16

Station Type Date Time Source
DAAG TAF 2022/11/30 12:33 UTC NOAA

TAF TAF DAAG 301100Z 3012/0112 24010KT 9999 FEW023
TEMPO 3012/3016 FEW023TCU FEW026CB
BECMG 3017/3019 VRB02KT
BECMG 0101/0103 08010KT PROB30
TEMPO 0106/0112 FEW026CB

Example: see airport list